sensor_id;sensor_type;location;lat;lon;timestamp;temperature;humidity
10312;DHT22;5201;48.776;9.128;2022-12-05T00:01:39;5.00;99.90
10312;DHT22;5201;48.776;9.128;2022-12-05T00:04:09;5.00;99.90
10312;DHT22;5201;48.776;9.128;2022-12-05T00:06:36;5.00;99.90
10312;DHT22;5201;48.776;9.128;2022-12-05T00:09:03;5.00;99.90
10312;DHT22;5201;48.776;9.128;2022-12-05T00:11:31;4.90;99.90
10312;DHT22;5201;48.776;9.128;2022-12-05T00:13:58;6.00;99.90
10312;DHT22;5201;48.776;9.128;2022-12-05T00:16:26;4.80;99.90
10312;DHT22;5201;48.776;9.128;2022-12-05T00:18:52;4.80;99.90
10312;DHT22;5201;48.776;9.128;2022-12-05T00:21:24;4.90;99.90
10312;DHT22;5201;48.776;9.128;2022-12-05T00:23:51;4.80;99.90
10312;DHT22;5201;48.776;9.128;2022-12-05T00:26:18;5.80;99.90
10312;DHT22;5201;48.776;9.128;2022-12-05T00:28:44;4.80;99.90
10312;DHT22;5201;48.776;9.128;2022-12-05T00:31:12;4.70;99.90
10312;DHT22;5201;48.776;9.128;2022-12-05T00:33:38;4.60;99.90
10312;DHT22;5201;48.776;9.128;2022-12-05T00:36:07;4.50;99.90
10312;DHT22;5201;48.776;9.128;2022-12-05T00:38:33;4.60;99.90
10312;DHT22;5201;48.776;9.128;2022-12-05T00:41:22;4.60;99.90
10312;DHT22;5201;48.776;9.128;2022-12-05T00:43:48;4.50;99.90
10312;DHT22;5201;48.776;9.128;2022-12-05T00:46:19;4.60;99.90
10312;DHT22;5201;48.776;9.128;2022-12-05T00:48:46;4.70;99.90
10312;DHT22;5201;48.776;9.128;2022-12-05T00:53:39;4.90;99.90
10312;DHT22;5201;48.776;9.128;2022-12-05T00:56:07;5.50;99.90
10312;DHT22;5201;48.776;9.128;2022-12-05T00:58:33;5.00;99.90
10312;DHT22;5201;48.776;9.128;2022-12-05T01:01:21;5.00;99.90
10312;DHT22;5201;48.776;9.128;2022-12-05T01:03:47;5.10;99.90
10312;DHT22;5201;48.776;9.128;2022-12-05T01:06:14;5.00;99.90
10312;DHT22;5201;48.776;9.128;2022-12-05T01:08:40;4.80;99.90
10312;DHT22;5201;48.776;9.128;2022-12-05T01:11:07;5.00;99.90
10312;DHT22;5201;48.776;9.128;2022-12-05T01:13:33;4.90;99.90
10312;DHT22;5201;48.776;9.128;2022-12-05T01:16:00;4.90;99.90
10312;DHT22;5201;48.776;9.128;2022-12-05T01:18:26;4.70;99.90
10312;DHT22;5201;48.776;9.128;2022-12-05T01:20:52;5.20;99.90
10312;DHT22;5201;48.776;9.128;2022-12-05T01:23:18;4.60;99.90
10312;DHT22;5201;48.776;9.128;2022-12-05T01:25:46;4.50;99.90
10312;DHT22;5201;48.776;9.128;2022-12-05T01:28:13;4.40;99.90
10312;DHT22;5201;48.776;9.128;2022-12-05T01:30:40;4.60;99.90
10312;DHT22;5201;48.776;9.128;2022-12-05T01:33:06;4.60;99.90
10312;DHT22;5201;48.776;9.128;2022-12-05T01:35:33;4.60;99.90
10312;DHT22;5201;48.776;9.128;2022-12-05T01:38:00;4.70;99.90
10312;DHT22;5201;48.776;9.128;2022-12-05T01:40:26;4.90;99.90
10312;DHT22;5201;48.776;9.128;2022-12-05T01:42:52;4.90;99.90
10312;DHT22;5201;48.776;9.128;2022-12-05T01:45:33;4.70;99.90
10312;DHT22;5201;48.776;9.128;2022-12-05T01:48:02;4.70;99.90
10312;DHT22;5201;48.776;9.128;2022-12-05T01:50:29;4.70;99.90
10312;DHT22;5201;48.776;9.128;2022-12-05T01:52:54;4.60;99.90
10312;DHT22;5201;48.776;9.128;2022-12-05T01:55:20;4.90;99.90
10312;DHT22;5201;48.776;9.128;2022-12-05T01:57:46;4.70;99.90
10312;DHT22;5201;48.776;9.128;2022-12-05T02:00:16;4.80;99.90
10312;DHT22;5201;48.776;9.128;2022-12-05T02:02:48;4.80;99.90
10312;DHT22;5201;48.776;9.128;2022-12-05T02:05:20;4.90;99.90
10312;DHT22;5201;48.776;9.128;2022-12-05T02:07:46;4.80;99.90
10312;DHT22;5201;48.776;9.128;2022-12-05T02:10:15;4.70;99.90
10312;DHT22;5201;48.776;9.128;2022-12-05T02:12:41;4.70;99.90
10312;DHT22;5201;48.776;9.128;2022-12-05T02:20:37;4.80;99.90
10312;DHT22;5201;48.776;9.128;2022-12-05T02:26:24;4.90;99.90
10312;DHT22;5201;48.776;9.128;2022-12-05T02:31:52;4.60;99.90
10312;DHT22;5201;48.776;9.128;2022-12-05T02:37:15;4.30;99.90
10312;DHT22;5201;48.776;9.128;2022-12-05T02:39:53;4.80;99.90
10312;DHT22;5201;48.776;9.128;2022-12-05T02:45:24;4.10;99.90
10312;DHT22;5201;48.776;9.128;2022-12-05T02:47:54;4.40;99.90
10312;DHT22;5201;48.776;9.128;2022-12-05T02:50:27;4.30;99.90
10312;DHT22;5201;48.776;9.128;2022-12-05T02:52:55;4.30;99.90
10312;DHT22;5201;48.776;9.128;2022-12-05T02:55:24;4.40;99.90
10312;DHT22;5201;48.776;9.128;2022-12-05T02:57:54;4.60;99.90
10312;DHT22;5201;48.776;9.128;2022-12-05T03:00:22;4.50;99.90
10312;DHT22;5201;48.776;9.128;2022-12-05T03:02:51;4.40;99.90
10312;DHT22;5201;48.776;9.128;2022-12-05T03:05:26;4.50;99.90
10312;DHT22;5201;48.776;9.128;2022-12-05T03:07:57;4.50;99.90
10312;DHT22;5201;48.776;9.128;2022-12-05T03:10:26;4.60;99.90
10312;DHT22;5201;48.776;9.128;2022-12-05T03:12:56;4.60;99.90
10312;DHT22;5201;48.776;9.128;2022-12-05T03:15:30;4.70;99.90
10312;DHT22;5201;48.776;9.128;2022-12-05T03:18:12;4.80;99.90
10312;DHT22;5201;48.776;9.128;2022-12-05T03:20:45;4.80;99.90
10312;DHT22;5201;48.776;9.128;2022-12-05T03:26:10;4.80;99.90
10312;DHT22;5201;48.776;9.128;2022-12-05T03:29:37;4.90;99.90
10312;DHT22;5201;48.776;9.128;2022-12-05T03:32:22;5.00;99.90
10312;DHT22;5201;48.776;9.128;2022-12-05T03:42:53;4.90;99.90
10312;DHT22;5201;48.776;9.128;2022-12-05T03:45:28;4.90;99.90
10312;DHT22;5201;48.776;9.128;2022-12-05T03:48:07;5.10;99.90
10312;DHT22;5201;48.776;9.128;2022-12-05T03:50:39;5.10;99.90
10312;DHT22;5201;48.776;9.128;2022-12-05T03:53:15;5.30;99.90
10312;DHT22;5201;48.776;9.128;2022-12-05T03:55:43;5.20;99.90
10312;DHT22;5201;48.776;9.128;2022-12-05T03:58:16;5.10;99.90
10312;DHT22;5201;48.776;9.128;2022-12-05T04:00:45;5.10;99.90
10312;DHT22;5201;48.776;9.128;2022-12-05T04:03:19;5.10;99.90
10312;DHT22;5201;48.776;9.128;2022-12-05T04:05:48;5.00;99.90
10312;DHT22;5201;48.776;9.128;2022-12-05T04:08:21;5.00;99.90
10312;DHT22;5201;48.776;9.128;2022-12-05T04:10:50;5.00;99.90
10312;DHT22;5201;48.776;9.128;2022-12-05T04:13:27;4.90;99.90
10312;DHT22;5201;48.776;9.128;2022-12-05T04:15:59;5.00;99.90
10312;DHT22;5201;48.776;9.128;2022-12-05T04:19:14;5.00;99.90
10312;DHT22;5201;48.776;9.128;2022-12-05T04:21:46;5.10;99.90
10312;DHT22;5201;48.776;9.128;2022-12-05T04:24:17;5.20;99.90
10312;DHT22;5201;48.776;9.128;2022-12-05T04:29:39;5.60;99.90
10312;DHT22;5201;48.776;9.128;2022-12-05T04:32:09;5.40;99.90
10312;DHT22;5201;48.776;9.128;2022-12-05T04:34:36;5.20;99.90
10312;DHT22;5201;48.776;9.128;2022-12-05T04:37:09;6.80;99.90
10312;DHT22;5201;48.776;9.128;2022-12-05T04:39:44;5.40;99.90
10312;DHT22;5201;48.776;9.128;2022-12-05T04:42:18;5.40;99.90
10312;DHT22;5201;48.776;9.128;2022-12-05T04:45:02;5.30;99.90
10312;DHT22;5201;48.776;9.128;2022-12-05T04:47:34;5.20;99.90
10312;DHT22;5201;48.776;9.128;2022-12-05T04:50:04;5.30;99.90
10312;DHT22;5201;48.776;9.128;2022-12-05T04:52:30;5.40;99.90
10312;DHT22;5201;48.776;9.128;2022-12-05T04:55:13;5.50;99.90
10312;DHT22;5201;48.776;9.128;2022-12-05T04:57:48;5.40;99.90
10312;DHT22;5201;48.776;9.128;2022-12-05T05:00:15;5.40;99.90
10312;DHT22;5201;48.776;9.128;2022-12-05T05:02:50;5.40;99.90
10312;DHT22;5201;48.776;9.128;2022-12-05T05:05:19;5.40;99.90
10312;DHT22;5201;48.776;9.128;2022-12-05T05:07:49;5.30;99.90
10312;DHT22;5201;48.776;9.128;2022-12-05T05:10:20;5.30;99.90
10312;DHT22;5201;48.776;9.128;2022-12-05T05:12:47;5.30;99.90
10312;DHT22;5201;48.776;9.128;2022-12-05T05:15:12;5.50;99.90
10312;DHT22;5201;48.776;9.128;2022-12-05T05:17:38;5.40;99.90
10312;DHT22;5201;48.776;9.128;2022-12-05T05:20:04;5.50;99.90
10312;DHT22;5201;48.776;9.128;2022-12-05T05:22:50;5.40;99.90
10312;DHT22;5201;48.776;9.128;2022-12-05T05:25:22;5.40;99.90
10312;DHT22;5201;48.776;9.128;2022-12-05T05:27:50;5.40;99.90
10312;DHT22;5201;48.776;9.128;2022-12-05T05:30:19;5.30;99.90
10312;DHT22;5201;48.776;9.128;2022-12-05T05:32:45;5.20;99.90
10312;DHT22;5201;48.776;9.128;2022-12-05T05:35:12;5.20;99.90
10312;DHT22;5201;48.776;9.128;2022-12-05T05:37:38;5.50;99.90
10312;DHT22;5201;48.776;9.128;2022-12-05T05:40:06;5.30;99.90
10312;DHT22;5201;48.776;9.128;2022-12-05T05:42:34;5.30;99.90
10312;DHT22;5201;48.776;9.128;2022-12-05T05:44:59;5.60;99.90
10312;DHT22;5201;48.776;9.128;2022-12-05T05:47:25;5.70;99.90
10312;DHT22;5201;48.776;9.128;2022-12-05T05:49:51;5.50;99.90
10312;DHT22;5201;48.776;9.128;2022-12-05T05:52:16;5.40;99.90
10312;DHT22;5201;48.776;9.128;2022-12-05T05:54:42;5.30;99.90
10312;DHT22;5201;48.776;9.128;2022-12-05T05:57:07;5.30;99.90
10312;DHT22;5201;48.776;9.128;2022-12-05T05:59:33;5.20;99.90
10312;DHT22;5201;48.776;9.128;2022-12-05T06:01:59;5.30;99.90
10312;DHT22;5201;48.776;9.128;2022-12-05T06:04:25;5.20;99.90
10312;DHT22;5201;48.776;9.128;2022-12-05T06:06:50;5.30;99.90
10312;DHT22;5201;48.776;9.128;2022-12-05T06:09:16;5.30;99.90
10312;DHT22;5201;48.776;9.128;2022-12-05T06:11:41;5.30;99.90
10312;DHT22;5201;48.776;9.128;2022-12-05T06:14:07;5.20;99.90
10312;DHT22;5201;48.776;9.128;2022-12-05T06:16:33;5.20;99.90
10312;DHT22;5201;48.776;9.128;2022-12-05T06:18:58;5.10;99.90
10312;DHT22;5201;48.776;9.128;2022-12-05T06:21:24;5.10;99.90
10312;DHT22;5201;48.776;9.128;2022-12-05T06:23:50;5.10;99.90
10312;DHT22;5201;48.776;9.128;2022-12-05T06:26:19;5.10;99.90
10312;DHT22;5201;48.776;9.128;2022-12-05T06:28:45;5.00;99.90
10312;DHT22;5201;48.776;9.128;2022-12-05T06:31:13;5.20;99.90
10312;DHT22;5201;48.776;9.128;2022-12-05T06:33:39;5.30;99.90
10312;DHT22;5201;48.776;9.128;2022-12-05T06:36:08;5.20;99.90
10312;DHT22;5201;48.776;9.128;2022-12-05T06:38:34;5.20;99.90
10312;DHT22;5201;48.776;9.128;2022-12-05T06:41:02;5.20;99.90
10312;DHT22;5201;48.776;9.128;2022-12-05T06:43:28;5.30;99.90
10312;DHT22;5201;48.776;9.128;2022-12-05T06:45:54;5.20;99.90
10312;DHT22;5201;48.776;9.128;2022-12-05T06:48:19;5.20;99.90
10312;DHT22;5201;48.776;9.128;2022-12-05T06:50:52;5.10;99.90
10312;DHT22;5201;48.776;9.128;2022-12-05T06:53:18;5.10;99.90
10312;DHT22;5201;48.776;9.128;2022-12-05T06:55:54;5.20;99.90
10312;DHT22;5201;48.776;9.128;2022-12-05T06:58:20;5.30;99.90
10312;DHT22;5201;48.776;9.128;2022-12-05T07:00:45;5.20;99.90
10312;DHT22;5201;48.776;9.128;2022-12-05T07:03:30;5.30;99.90
10312;DHT22;5201;48.776;9.128;2022-12-05T07:05:58;5.20;99.90
10312;DHT22;5201;48.776;9.128;2022-12-05T07:08:24;5.30;99.90
10312;DHT22;5201;48.776;9.128;2022-12-05T07:10:50;5.30;99.90
10312;DHT22;5201;48.776;9.128;2022-12-05T07:13:16;5.20;99.90
10312;DHT22;5201;48.776;9.128;2022-12-05T07:15:42;5.10;99.90
10312;DHT22;5201;48.776;9.128;2022-12-05T07:18:08;5.10;99.90
10312;DHT22;5201;48.776;9.128;2022-12-05T07:20:33;5.30;99.90
10312;DHT22;5201;48.776;9.128;2022-12-05T07:22:59;5.40;99.90
10312;DHT22;5201;48.776;9.128;2022-12-05T07:25:24;5.30;99.90
10312;DHT22;5201;48.776;9.128;2022-12-05T07:27:50;5.20;99.90
10312;DHT22;5201;48.776;9.128;2022-12-05T07:30:16;5.10;99.90
10312;DHT22;5201;48.776;9.128;2022-12-05T07:32:41;5.10;99.90
10312;DHT22;5201;48.776;9.128;2022-12-05T07:35:07;5.20;99.90
10312;DHT22;5201;48.776;9.128;2022-12-05T07:37:33;5.30;99.90
10312;DHT22;5201;48.776;9.128;2022-12-05T07:39:58;5.30;99.90
10312;DHT22;5201;48.776;9.128;2022-12-05T07:42:24;5.20;99.90
10312;DHT22;5201;48.776;9.128;2022-12-05T07:44:49;5.30;99.90
10312;DHT22;5201;48.776;9.128;2022-12-05T07:47:15;5.30;99.90
10312;DHT22;5201;48.776;9.128;2022-12-05T07:49:41;5.40;99.90
10312;DHT22;5201;48.776;9.128;2022-12-05T07:52:06;5.40;99.90
10312;DHT22;5201;48.776;9.128;2022-12-05T07:54:32;5.60;99.90
10312;DHT22;5201;48.776;9.128;2022-12-05T07:56:58;5.60;99.90
10312;DHT22;5201;48.776;9.128;2022-12-05T07:59:23;5.70;99.90
10312;DHT22;5201;48.776;9.128;2022-12-05T08:01:49;5.70;99.90
10312;DHT22;5201;48.776;9.128;2022-12-05T08:04:14;5.80;99.90
10312;DHT22;5201;48.776;9.128;2022-12-05T08:06:40;5.80;99.90
10312;DHT22;5201;48.776;9.128;2022-12-05T08:09:06;5.90;99.90
10312;DHT22;5201;48.776;9.128;2022-12-05T08:11:32;5.80;99.90
10312;DHT22;5201;48.776;9.128;2022-12-05T08:14:02;5.60;99.90
10312;DHT22;5201;48.776;9.128;2022-12-05T08:16:29;5.30;99.90
10312;DHT22;5201;48.776;9.128;2022-12-05T08:19:02;5.20;99.90
10312;DHT22;5201;48.776;9.128;2022-12-05T08:21:28;5.20;99.90
10312;DHT22;5201;48.776;9.128;2022-12-05T08:23:54;5.20;99.90
10312;DHT22;5201;48.776;9.128;2022-12-05T08:26:22;5.20;99.90
10312;DHT22;5201;48.776;9.128;2022-12-05T08:29:00;5.20;99.90
10312;DHT22;5201;48.776;9.128;2022-12-05T08:31:28;5.20;99.90
10312;DHT22;5201;48.776;9.128;2022-12-05T08:33:56;5.00;99.90
10312;DHT22;5201;48.776;9.128;2022-12-05T08:36:21;5.10;99.90
10312;DHT22;5201;48.776;9.128;2022-12-05T08:38:47;5.20;99.90
10312;DHT22;5201;48.776;9.128;2022-12-05T08:41:15;5.40;99.90
10312;DHT22;5201;48.776;9.128;2022-12-05T08:43:41;5.50;99.90
10312;DHT22;5201;48.776;9.128;2022-12-05T08:46:07;6.00;99.90
10312;DHT22;5201;48.776;9.128;2022-12-05T08:48:34;5.50;99.90
10312;DHT22;5201;48.776;9.128;2022-12-05T08:51:05;5.70;99.90
10312;DHT22;5201;48.776;9.128;2022-12-05T08:53:31;5.80;99.90
10312;DHT22;5201;48.776;9.128;2022-12-05T08:56:01;5.80;99.90
10312;DHT22;5201;48.776;9.128;2022-12-05T08:58:28;7.90;99.90
10312;DHT22;5201;48.776;9.128;2022-12-05T09:00:53;6.00;99.90
10312;DHT22;5201;48.776;9.128;2022-12-05T09:03:19;6.10;99.90
10312;DHT22;5201;48.776;9.128;2022-12-05T09:05:45;6.10;99.90
10312;DHT22;5201;48.776;9.128;2022-12-05T09:08:10;6.20;99.90
10312;DHT22;5201;48.776;9.128;2022-12-05T09:10:37;6.20;99.90
10312;DHT22;5201;48.776;9.128;2022-12-05T09:13:02;6.20;99.90
10312;DHT22;5201;48.776;9.128;2022-12-05T09:15:28;6.20;99.90
10312;DHT22;5201;48.776;9.128;2022-12-05T09:17:54;7.40;99.90
10312;DHT22;5201;48.776;9.128;2022-12-05T09:20:19;6.20;99.90
10312;DHT22;5201;48.776;9.128;2022-12-05T09:22:45;7.20;99.90
10312;DHT22;5201;48.776;9.128;2022-12-05T09:25:11;5.90;99.90
10312;DHT22;5201;48.776;9.128;2022-12-05T09:27:36;5.80;99.90
10312;DHT22;5201;48.776;9.128;2022-12-05T09:30:03;6.00;99.90
10312;DHT22;5201;48.776;9.128;2022-12-05T09:32:29;5.90;99.90
10312;DHT22;5201;48.776;9.128;2022-12-05T09:34:58;6.00;99.90
10312;DHT22;5201;48.776;9.128;2022-12-05T09:37:23;6.20;99.90
10312;DHT22;5201;48.776;9.128;2022-12-05T09:39:49;7.20;99.90
10312;DHT22;5201;48.776;9.128;2022-12-05T09:42:21;6.50;99.90
10312;DHT22;5201;48.776;9.128;2022-12-05T09:45:11;6.50;99.90
10312;DHT22;5201;48.776;9.128;2022-12-05T09:47:56;6.70;99.90
10312;DHT22;5201;48.776;9.128;2022-12-05T09:50:33;6.60;99.90
10312;DHT22;5201;48.776;9.128;2022-12-05T09:55:28;6.70;99.90
10312;DHT22;5201;48.776;9.128;2022-12-05T09:57:59;6.70;99.90
10312;DHT22;5201;48.776;9.128;2022-12-05T10:00:28;6.70;99.90
10312;DHT22;5201;48.776;9.128;2022-12-05T10:06:12;6.70;99.90
10312;DHT22;5201;48.776;9.128;2022-12-05T10:09:01;6.70;99.90
10312;DHT22;5201;48.776;9.128;2022-12-05T10:14:19;7.60;99.90
10312;DHT22;5201;48.776;9.128;2022-12-05T10:16:56;6.90;99.90
10312;DHT22;5201;48.776;9.128;2022-12-05T10:19:29;6.80;99.90
10312;DHT22;5201;48.776;9.128;2022-12-05T10:22:11;6.80;99.90
10312;DHT22;5201;48.776;9.128;2022-12-05T10:25:00;6.80;99.90
10312;DHT22;5201;48.776;9.128;2022-12-05T10:30:00;6.90;99.90
10312;DHT22;5201;48.776;9.128;2022-12-05T10:34:54;6.80;99.90
10312;DHT22;5201;48.776;9.128;2022-12-05T10:37:24;6.90;99.90
10312;DHT22;5201;48.776;9.128;2022-12-05T10:39:51;7.00;99.90
10312;DHT22;5201;48.776;9.128;2022-12-05T10:42:33;7.30;99.90
10312;DHT22;5201;48.776;9.128;2022-12-05T10:45:05;7.20;99.90
10312;DHT22;5201;48.776;9.128;2022-12-05T10:47:32;7.20;99.90
10312;DHT22;5201;48.776;9.128;2022-12-05T10:50:16;7.30;99.90
10312;DHT22;5201;48.776;9.128;2022-12-05T10:52:42;7.30;99.90
10312;DHT22;5201;48.776;9.128;2022-12-05T10:55:15;7.30;99.90
10312;DHT22;5201;48.776;9.128;2022-12-05T10:57:41;7.50;99.90
10312;DHT22;5201;48.776;9.128;2022-12-05T11:00:22;7.30;99.90
10312;DHT22;5201;48.776;9.128;2022-12-05T11:02:48;7.50;99.90
10312;DHT22;5201;48.776;9.128;2022-12-05T11:05:14;7.90;99.90
10312;DHT22;5201;48.776;9.128;2022-12-05T11:07:47;7.60;99.90
10312;DHT22;5201;48.776;9.128;2022-12-05T11:10:35;7.60;99.90
10312;DHT22;5201;48.776;9.128;2022-12-05T11:13:21;7.60;99.90
10312;DHT22;5201;48.776;9.128;2022-12-05T11:15:48;7.70;99.90
10312;DHT22;5201;48.776;9.128;2022-12-05T11:18:29;7.70;99.90
10312;DHT22;5201;48.776;9.128;2022-12-05T11:20:55;7.70;99.90
10312;DHT22;5201;48.776;9.128;2022-12-05T11:23:27;7.70;99.90
10312;DHT22;5201;48.776;9.128;2022-12-05T11:25:54;7.70;99.90
10312;DHT22;5201;48.776;9.128;2022-12-05T11:33:40;7.60;99.90
10312;DHT22;5201;48.776;9.128;2022-12-05T11:36:21;7.40;99.90
10312;DHT22;5201;48.776;9.128;2022-12-05T11:38:47;7.40;99.90
10312;DHT22;5201;48.776;9.128;2022-12-05T11:41:33;7.40;99.90
10312;DHT22;5201;48.776;9.128;2022-12-05T11:52:34;7.70;99.90
10312;DHT22;5201;48.776;9.128;2022-12-05T12:06:49;8.20;99.90
10312;DHT22;5201;48.776;9.128;2022-12-05T12:09:48;8.10;99.90
10312;DHT22;5201;48.776;9.128;2022-12-05T12:18:30;8.00;99.90
10312;DHT22;5201;48.776;9.128;2022-12-05T12:27:12;7.90;99.90
10312;DHT22;5201;48.776;9.128;2022-12-05T12:32:22;8.00;99.90
10312;DHT22;5201;48.776;9.128;2022-12-05T12:35:12;8.10;99.90
10312;DHT22;5201;48.776;9.128;2022-12-05T12:40:39;8.30;99.90
10312;DHT22;5201;48.776;9.128;2022-12-05T12:48:32;8.40;99.90
10312;DHT22;5201;48.776;9.128;2022-12-05T12:51:02;8.30;99.90
10312;DHT22;5201;48.776;9.128;2022-12-05T12:56:30;8.30;99.90
10312;DHT22;5201;48.776;9.128;2022-12-05T13:04:40;8.30;99.90
10312;DHT22;5201;48.776;9.128;2022-12-05T13:07:40;8.40;99.90
10312;DHT22;5201;48.776;9.128;2022-12-05T13:10:23;8.40;99.90
10312;DHT22;5201;48.776;9.128;2022-12-05T13:12:50;8.50;99.90
10312;DHT22;5201;48.776;9.128;2022-12-05T13:15:21;8.40;99.90
10312;DHT22;5201;48.776;9.128;2022-12-05T13:17:49;8.50;99.90
10312;DHT22;5201;48.776;9.128;2022-12-05T13:20:21;8.50;99.90
10312;DHT22;5201;48.776;9.128;2022-12-05T13:22:49;8.50;99.90
10312;DHT22;5201;48.776;9.128;2022-12-05T13:25:16;8.40;99.90
10312;DHT22;5201;48.776;9.128;2022-12-05T13:27:55;8.40;99.90
10312;DHT22;5201;48.776;9.128;2022-12-05T13:30:22;8.40;99.90
10312;DHT22;5201;48.776;9.128;2022-12-05T13:32:55;8.30;99.90
10312;DHT22;5201;48.776;9.128;2022-12-05T13:35:35;8.40;99.90
10312;DHT22;5201;48.776;9.128;2022-12-05T13:38:28;8.40;99.90
10312;DHT22;5201;48.776;9.128;2022-12-05T13:41:14;8.20;99.90
10312;DHT22;5201;48.776;9.128;2022-12-05T13:43:59;8.00;99.90
10312;DHT22;5201;48.776;9.128;2022-12-05T13:46:29;8.10;99.90
10312;DHT22;5201;48.776;9.128;2022-12-05T13:50:07;7.90;99.90
10312;DHT22;5201;48.776;9.128;2022-12-05T13:52:22;8.00;99.90
10312;DHT22;5201;48.776;9.128;2022-12-05T13:57:47;8.00;99.90
10312;DHT22;5201;48.776;9.128;2022-12-05T14:07:57;8.10;99.90
10312;DHT22;5201;48.776;9.128;2022-12-05T14:15:41;8.10;99.90
10312;DHT22;5201;48.776;9.128;2022-12-05T14:29:16;8.00;99.90
10312;DHT22;5201;48.776;9.128;2022-12-05T14:34:22;7.90;99.90
10312;DHT22;5201;48.776;9.128;2022-12-05T14:36:55;8.00;99.90
10312;DHT22;5201;48.776;9.128;2022-12-05T14:39:45;8.00;99.90
10312;DHT22;5201;48.776;9.128;2022-12-05T14:42:37;8.10;99.90
10312;DHT22;5201;48.776;9.128;2022-12-05T14:48:02;8.30;99.90
10312;DHT22;5201;48.776;9.128;2022-12-05T14:53:28;8.00;99.90
10312;DHT22;5201;48.776;9.128;2022-12-05T14:58:52;8.10;99.90
10312;DHT22;5201;48.776;9.128;2022-12-05T15:01:30;7.60;99.90
10312;DHT22;5201;48.776;9.128;2022-12-05T15:11:55;7.30;99.90
10312;DHT22;5201;48.776;9.128;2022-12-05T15:14:24;7.30;99.90
10312;DHT22;5201;48.776;9.128;2022-12-05T15:16:53;7.00;99.90
10312;DHT22;5201;48.776;9.128;2022-12-05T15:19:26;6.90;99.90
10312;DHT22;5201;48.776;9.128;2022-12-05T15:21:56;6.90;99.90
10312;DHT22;5201;48.776;9.128;2022-12-05T15:24:23;6.80;99.90
10312;DHT22;5201;48.776;9.128;2022-12-05T15:26:49;6.80;99.90
10312;DHT22;5201;48.776;9.128;2022-12-05T15:31:54;6.80;99.90
10312;DHT22;5201;48.776;9.128;2022-12-05T15:34:45;6.80;99.90
10312;DHT22;5201;48.776;9.128;2022-12-05T15:40:01;6.30;99.90
10312;DHT22;5201;48.776;9.128;2022-12-05T15:42:34;6.50;99.90
10312;DHT22;5201;48.776;9.128;2022-12-05T15:48:12;6.50;99.90
10312;DHT22;5201;48.776;9.128;2022-12-05T15:55:40;6.20;99.90
10312;DHT22;5201;48.776;9.128;2022-12-05T15:58:23;6.40;99.90
10312;DHT22;5201;48.776;9.128;2022-12-05T16:00:53;6.60;99.90
10312;DHT22;5201;48.776;9.128;2022-12-05T16:03:25;6.50;99.90
10312;DHT22;5201;48.776;9.128;2022-12-05T16:06:02;6.20;99.90
10312;DHT22;5201;48.776;9.128;2022-12-05T16:08:29;6.30;99.90
10312;DHT22;5201;48.776;9.128;2022-12-05T16:11:11;6.60;99.90
10312;DHT22;5201;48.776;9.128;2022-12-05T16:13:43;6.90;99.90
10312;DHT22;5201;48.776;9.128;2022-12-05T16:16:14;7.10;99.90
10312;DHT22;5201;48.776;9.128;2022-12-05T16:18:56;6.50;99.90
10312;DHT22;5201;48.776;9.128;2022-12-05T16:21:30;6.20;99.90
10312;DHT22;5201;48.776;9.128;2022-12-05T16:24:18;6.20;99.90
10312;DHT22;5201;48.776;9.128;2022-12-05T16:27:54;6.30;99.90
10312;DHT22;5201;48.776;9.128;2022-12-05T16:30:19;6.50;99.90
10312;DHT22;5201;48.776;9.128;2022-12-05T16:32:47;6.70;99.90
10312;DHT22;5201;48.776;9.128;2022-12-05T16:35:34;6.80;99.90
10312;DHT22;5201;48.776;9.128;2022-12-05T16:48:45;6.70;99.90
10312;DHT22;5201;48.776;9.128;2022-12-05T16:51:19;6.90;99.90
10312;DHT22;5201;48.776;9.128;2022-12-05T16:53:49;6.80;99.90
10312;DHT22;5201;48.776;9.128;2022-12-05T16:56:19;6.90;99.90
10312;DHT22;5201;48.776;9.128;2022-12-05T16:58:45;4.60;99.90
10312;DHT22;5201;48.776;9.128;2022-12-05T17:01:21;6.70;99.90
10312;DHT22;5201;48.776;9.128;2022-12-05T17:03:47;6.70;99.90
10312;DHT22;5201;48.776;9.128;2022-12-05T17:06:13;6.50;99.90
10312;DHT22;5201;48.776;9.128;2022-12-05T17:08:40;6.50;99.90
10312;DHT22;5201;48.776;9.128;2022-12-05T17:13:44;6.30;99.90
10312;DHT22;5201;48.776;9.128;2022-12-05T17:16:14;6.50;99.90
10312;DHT22;5201;48.776;9.128;2022-12-05T17:18:40;6.60;99.90
10312;DHT22;5201;48.776;9.128;2022-12-05T17:21:12;6.70;99.90
10312;DHT22;5201;48.776;9.128;2022-12-05T17:23:38;6.60;99.90
10312;DHT22;5201;48.776;9.128;2022-12-05T17:26:04;6.70;99.90
10312;DHT22;5201;48.776;9.128;2022-12-05T17:28:29;6.70;99.90
10312;DHT22;5201;48.776;9.128;2022-12-05T17:30:55;6.70;99.90
10312;DHT22;5201;48.776;9.128;2022-12-05T17:33:21;6.80;99.90
10312;DHT22;5201;48.776;9.128;2022-12-05T17:35:47;6.90;99.90
10312;DHT22;5201;48.776;9.128;2022-12-05T17:38:12;6.90;99.90
10312;DHT22;5201;48.776;9.128;2022-12-05T17:40:38;6.90;99.90
10312;DHT22;5201;48.776;9.128;2022-12-05T17:43:04;6.90;99.90
10312;DHT22;5201;48.776;9.128;2022-12-05T17:45:30;6.90;99.90
10312;DHT22;5201;48.776;9.128;2022-12-05T17:47:56;6.90;99.90
10312;DHT22;5201;48.776;9.128;2022-12-05T17:50:23;6.90;99.90
10312;DHT22;5201;48.776;9.128;2022-12-05T17:52:50;6.90;99.90
10312;DHT22;5201;48.776;9.128;2022-12-05T17:55:24;7.00;99.90
10312;DHT22;5201;48.776;9.128;2022-12-05T17:57:50;6.80;99.90
10312;DHT22;5201;48.776;9.128;2022-12-05T18:00:17;6.90;99.90
10312;DHT22;5201;48.776;9.128;2022-12-05T18:02:44;6.80;99.90
10312;DHT22;5201;48.776;9.128;2022-12-05T18:05:11;6.70;99.90
10312;DHT22;5201;48.776;9.128;2022-12-05T18:07:38;6.70;99.90
10312;DHT22;5201;48.776;9.128;2022-12-05T18:10:10;6.70;99.90
10312;DHT22;5201;48.776;9.128;2022-12-05T18:12:35;6.80;99.90
10312;DHT22;5201;48.776;9.128;2022-12-05T18:15:01;6.90;99.90
10312;DHT22;5201;48.776;9.128;2022-12-05T18:17:27;7.20;99.90
10312;DHT22;5201;48.776;9.128;2022-12-05T18:19:53;7.30;99.90
10312;DHT22;5201;48.776;9.128;2022-12-05T18:22:24;7.40;99.90
10312;DHT22;5201;48.776;9.128;2022-12-05T18:24:50;7.40;99.90
10312;DHT22;5201;48.776;9.128;2022-12-05T18:27:16;7.40;99.90
10312;DHT22;5201;48.776;9.128;2022-12-05T18:29:42;7.30;99.90
10312;DHT22;5201;48.776;9.128;2022-12-05T18:32:11;7.30;99.90
10312;DHT22;5201;48.776;9.128;2022-12-05T18:34:36;7.30;99.90
10312;DHT22;5201;48.776;9.128;2022-12-05T18:37:02;7.20;99.90
10312;DHT22;5201;48.776;9.128;2022-12-05T18:39:27;7.10;99.90
10312;DHT22;5201;48.776;9.128;2022-12-05T18:41:53;7.30;99.90
10312;DHT22;5201;48.776;9.128;2022-12-05T18:44:19;7.40;99.90
10312;DHT22;5201;48.776;9.128;2022-12-05T18:46:44;7.40;99.90
10312;DHT22;5201;48.776;9.128;2022-12-05T18:49:11;7.30;99.90
10312;DHT22;5201;48.776;9.128;2022-12-05T18:51:37;7.30;99.90
10312;DHT22;5201;48.776;9.128;2022-12-05T18:54:03;7.20;99.90
10312;DHT22;5201;48.776;9.128;2022-12-05T18:56:32;7.30;99.90
10312;DHT22;5201;48.776;9.128;2022-12-05T18:59:00;7.20;99.90
10312;DHT22;5201;48.776;9.128;2022-12-05T19:01:34;7.20;99.90
10312;DHT22;5201;48.776;9.128;2022-12-05T19:04:01;7.20;99.90
10312;DHT22;5201;48.776;9.128;2022-12-05T19:06:29;7.10;99.90
10312;DHT22;5201;48.776;9.128;2022-12-05T19:08:57;6.90;99.90
10312;DHT22;5201;48.776;9.128;2022-12-05T19:11:27;6.90;99.90
10312;DHT22;5201;48.776;9.128;2022-12-05T19:13:55;6.90;99.90
10312;DHT22;5201;48.776;9.128;2022-12-05T19:16:24;7.10;99.90
10312;DHT22;5201;48.776;9.128;2022-12-05T19:18:55;6.90;99.90
10312;DHT22;5201;48.776;9.128;2022-12-05T19:21:22;6.80;99.90